createdAt,value
2022-08-09T00:00:11.245Z,47.66
2022-08-09T00:02:59.711Z,47.56
2022-08-09T00:06:18.188Z,47.58
2022-08-09T00:08:32.123Z,47.70
2022-08-09T00:11:06.046Z,47.71
2022-08-09T00:13:51.232Z,47.72
2022-08-09T00:16:26.165Z,47.76
2022-08-09T00:19:09.563Z,47.84
2022-08-09T00:21:56.089Z,47.97
2022-08-09T00:24:27.524Z,48.03
2022-08-09T00:26:57.287Z,48.14
2022-08-09T00:29:39.652Z,48.19
2022-08-09T00:32:26.641Z,48.13
2022-08-09T00:34:56.377Z,48.29
2022-08-09T00:37:24.155Z,48.23
2022-08-09T00:40:12.499Z,48.19
2022-08-09T00:44:11.235Z,48.42
2022-08-09T00:45:28.026Z,48.38
2022-08-09T00:47:55.684Z,48.29
2022-08-09T00:50:25.094Z,48.44
2022-08-09T00:52:55.390Z,48.50
2022-08-09T00:56:02.947Z,48.61
2022-08-09T00:58:14.668Z,48.49
2022-08-09T01:00:54.751Z,48.69
2022-08-09T01:03:48.519Z,48.58
2022-08-09T01:06:53.849Z,48.61
2022-08-09T01:09:54.420Z,48.77
2022-08-09T01:12:35.108Z,48.80
2022-08-09T01:15:16.813Z,48.83
2022-08-09T01:18:03.780Z,48.86
2022-08-09T01:20:48.378Z,49.07
2022-08-09T01:24:02.382Z,49.11
2022-08-09T01:26:53.948Z,49.10
2022-08-09T01:29:56.445Z,49.25
2022-08-09T01:32:34.852Z,49.29
2022-08-09T01:35:18.208Z,49.39
2022-08-09T01:38:09.362Z,49.23
2022-08-09T01:40:43.987Z,49.24
2022-08-09T01:43:12.441Z,49.28
2022-08-09T01:45:44.530Z,49.24
2022-08-09T01:48:17.469Z,49.34
2022-08-09T01:50:55.221Z,49.42
2022-08-09T01:53:29.264Z,49.36
2022-08-09T01:56:11.189Z,49.28
2022-08-09T01:58:43.588Z,49.42
2022-08-09T02:01:18.774Z,49.36
2022-08-09T02:03:48.771Z,49.47
2022-08-09T02:06:39.003Z,49.52
2022-08-09T02:09:17.228Z,49.40
2022-08-09T02:11:45.126Z,49.46
2022-08-09T02:14:25.590Z,49.52
2022-08-09T02:16:59.581Z,49.56
2022-08-09T02:19:44.521Z,49.58
2022-08-09T02:22:35.755Z,49.58
2022-08-09T02:25:10.123Z,49.49
2022-08-09T02:28:00.388Z,49.57
2022-08-09T02:30:43.306Z,49.70
2022-08-09T02:33:23.048Z,49.56
2022-08-09T02:36:10.537Z,49.77
2022-08-09T02:38:47.853Z,49.80
2022-08-09T02:41:44.243Z,49.63
2022-08-09T02:44:29.489Z,49.71
2022-08-09T02:47:04.253Z,49.81
2022-08-09T02:49:38.829Z,49.85
2022-08-09T02:52:16.816Z,49.93
2022-08-09T02:54:54.567Z,50.01
2022-08-09T02:57:25.309Z,50.15
2022-08-09T03:00:20.722Z,50.18
2022-08-09T03:02:59.788Z,50.22
2022-08-09T03:05:34.221Z,50.36
2022-08-09T03:08:04.872Z,50.35
2022-08-09T03:10:35.583Z,50.61
2022-08-09T03:13:08.626Z,50.71
2022-08-09T03:16:04.840Z,50.64
2022-08-09T03:18:31.074Z,50.53
2022-08-09T03:20:59.404Z,50.54
2022-08-09T03:23:27.062Z,50.47
2022-08-09T03:26:04.696Z,50.51
2022-08-09T03:28:34.297Z,50.55
2022-08-09T03:31:10.040Z,50.47
2022-08-09T03:33:53.379Z,50.52
2022-08-09T03:36:27.277Z,50.59
2022-08-09T03:38:56.783Z,50.76
2022-08-09T03:41:29.999Z,50.85
2022-08-09T03:44:12.747Z,51.08
2022-08-09T03:46:40.439Z,50.99
2022-08-09T03:49:09.616Z,51.27
2022-08-09T03:51:56.576Z,51.28
2022-08-09T03:54:32.135Z,51.35
2022-08-09T03:57:04.519Z,51.49
2022-08-09T03:59:54.906Z,51.63
2022-08-09T04:02:27.917Z,51.57
2022-08-09T04:05:06.424Z,51.47
2022-08-09T04:07:53.528Z,51.55
2022-08-09T04:10:29.658Z,51.48
2022-08-09T04:13:04.149Z,51.43
2022-08-09T04:16:17.562Z,51.27
2022-08-09T04:18:21.364Z,51.25
2022-08-09T04:20:51.269Z,51.30
2022-08-09T04:23:23.200Z,51.35
2022-08-09T04:25:54.259Z,51.39
2022-08-09T04:28:32.972Z,51.43
2022-08-09T04:31:09.413Z,51.47
2022-08-09T04:33:47.199Z,51.44
2022-08-09T04:36:24.600Z,51.42
2022-08-09T04:38:53.748Z,51.46
2022-08-09T04:41:24.405Z,51.47
2022-08-09T04:44:09.588Z,51.52
2022-08-09T04:46:59.454Z,51.36
2022-08-09T04:49:53.090Z,51.54
2022-08-09T04:52:27.130Z,51.58
2022-08-09T04:54:57.609Z,51.53
2022-08-09T04:57:27.225Z,51.59
2022-08-09T05:00:16.691Z,51.53
2022-08-09T05:02:51.919Z,51.60
2022-08-09T05:05:31.948Z,51.69
2022-08-09T05:08:09.604Z,51.65
2022-08-09T05:10:41.968Z,51.55
2022-08-09T05:13:10.698Z,51.51
2022-08-09T05:15:42.992Z,51.55
2022-08-09T05:18:42.563Z,51.42
2022-08-09T05:21:13.346Z,51.51
2022-08-09T05:23:59.870Z,51.32
2022-08-09T05:26:36.826Z,51.25
2022-08-09T05:29:22.703Z,51.39
2022-08-09T05:31:58.486Z,51.44
2022-08-09T05:34:31.358Z,51.28
2022-08-09T05:37:06.762Z,51.29
2022-08-09T05:39:42.811Z,51.10
2022-08-09T05:42:20.579Z,51.11
2022-08-09T05:44:51.942Z,50.87
2022-08-09T05:47:22.734Z,51.05
2022-08-09T05:50:25.685Z,51.03
2022-08-09T05:52:42.005Z,50.88
2022-08-09T05:55:20.687Z,50.92
2022-08-09T05:57:55.396Z,50.80
2022-08-09T06:00:28.655Z,50.88
2022-08-09T06:03:03.559Z,50.82
2022-08-09T06:05:57.054Z,50.57
2022-08-09T06:08:24.404Z,50.58
2022-08-09T06:10:55.201Z,50.57
2022-08-09T06:13:23.680Z,50.64
2022-08-09T06:15:52.640Z,50.54
2022-08-09T06:18:24.902Z,50.60
2022-08-09T06:20:57.749Z,50.60
2022-08-09T06:23:59.021Z,50.31
2022-08-09T06:26:20.098Z,50.05
2022-08-09T06:29:00.823Z,50.11
2022-08-09T06:31:39.336Z,50.14
2022-08-09T06:34:23.428Z,49.88
2022-08-09T06:36:57.279Z,49.89
2022-08-09T06:39:57.422Z,50.03
2022-08-09T06:42:25.040Z,50.01
2022-08-09T06:44:59.196Z,49.95
2022-08-09T06:47:30.058Z,50.10
2022-08-09T06:50:13.336Z,49.99
2022-08-09T06:52:46.983Z,50.01
2022-08-09T06:55:17.642Z,50.11
2022-08-09T06:58:01.464Z,50.14
2022-08-09T07:00:52.327Z,50.27
2022-08-09T07:03:28.528Z,50.14
2022-08-09T07:06:04.556Z,50.31
2022-08-09T07:08:37.206Z,50.35
2022-08-09T07:11:08.306Z,50.38
2022-08-09T07:14:03.817Z,50.26
2022-08-09T07:16:39.533Z,50.33
2022-08-09T07:19:18.752Z,50.48
2022-08-09T07:21:57.673Z,50.36
2022-08-09T07:24:31.948Z,50.43
2022-08-09T07:27:01.971Z,50.47
2022-08-09T07:29:37.766Z,50.36
2022-08-09T07:32:07.213Z,50.32
2022-08-09T07:34:34.829Z,50.30
2022-08-09T07:37:02.757Z,50.30
2022-08-09T07:39:42.170Z,50.36
2022-08-09T07:42:11.328Z,50.36
2022-08-09T07:44:52.977Z,50.26
2022-08-09T07:47:23.185Z,50.22
2022-08-09T07:50:04.472Z,50.15
2022-08-09T07:52:37.906Z,49.79
2022-08-09T07:55:09.580Z,49.61
2022-08-09T07:57:47.229Z,49.51
2022-08-09T08:00:20.772Z,49.43
2022-08-09T08:03:05.149Z,49.45
2022-08-09T08:05:53.511Z,49.60
2022-08-09T08:09:00.939Z,49.28
2022-08-09T08:12:09.714Z,49.09
2022-08-09T08:14:01.172Z,49.02
2022-08-09T08:16:31.937Z,48.84
2022-08-09T08:19:03.109Z,48.64
2022-08-09T08:21:31.633Z,48.69
2022-08-09T08:24:01.466Z,48.32
2022-08-09T08:26:54.469Z,48.15
2022-08-09T08:29:28.030Z,48.08
2022-08-09T08:32:03.817Z,48.09
2022-08-09T08:34:36.380Z,48.17
2022-08-09T08:37:04.969Z,47.94
2022-08-09T08:39:39.829Z,47.72
2022-08-09T08:42:11.406Z,47.45
2022-08-09T08:44:41.508Z,47.36
2022-08-09T08:47:13.037Z,47.22
2022-08-09T08:49:48.439Z,47.28
2022-08-09T08:55:07.957Z,46.84
2022-08-09T08:57:37.641Z,47.04
2022-08-09T09:00:20.408Z,46.85
2022-08-09T09:02:52.922Z,46.74
2022-08-09T09:05:57.942Z,46.87
2022-08-09T09:08:30.459Z,46.46
2022-08-09T09:11:03.526Z,46.58
2022-08-09T09:13:55.759Z,46.60
2022-08-09T09:16:33.566Z,46.45
2022-08-09T09:19:37.571Z,46.41
2022-08-09T09:22:05.148Z,46.08
2022-08-09T09:24:39.627Z,46.26
2022-08-09T09:27:47.260Z,46.26
2022-08-09T09:30:14.091Z,46.06
2022-08-09T09:33:15.780Z,45.96
2022-08-09T09:36:19.808Z,46.03
2022-08-09T09:38:52.404Z,45.73
2022-08-09T09:41:33.115Z,45.88
2022-08-09T09:44:12.821Z,45.72
2022-08-09T09:46:46.058Z,45.56
2022-08-09T09:49:31.663Z,45.44
2022-08-09T09:52:16.487Z,45.27
2022-08-09T09:55:28.888Z,45.23
2022-08-09T09:58:04.419Z,45.29
2022-08-09T10:00:34.490Z,45.14
2022-08-09T10:03:09.061Z,45.06
2022-08-09T10:06:04.090Z,44.92
2022-08-09T10:08:32.760Z,44.75
2022-08-09T10:11:59.415Z,44.73
2022-08-09T10:14:31.827Z,44.31
2022-08-09T10:17:54.942Z,44.20
2022-08-09T10:20:35.930Z,44.09
2022-08-09T10:23:22.577Z,43.67
2022-08-09T10:26:06.586Z,43.68
2022-08-09T10:28:38.215Z,43.46
2022-08-09T10:34:08.729Z,43.27
2022-08-09T10:36:45.633Z,43.20
2022-08-09T10:39:19.171Z,42.98
2022-08-09T10:41:47.700Z,42.64
2022-08-09T10:44:22.908Z,42.63
2022-08-09T10:47:20.487Z,42.51
2022-08-09T10:50:03.248Z,42.15
2022-08-09T10:53:04.437Z,42.02
2022-08-09T10:55:49.349Z,41.62
2022-08-09T10:58:37.673Z,41.63
2022-08-09T11:03:03.079Z,41.05
2022-08-09T11:04:20.106Z,40.83
2022-08-09T11:07:00.181Z,40.11
2022-08-09T11:09:47.958Z,39.60
2022-08-09T11:12:30.265Z,39.24
2022-08-09T11:15:24.405Z,38.97
2022-08-09T11:18:03.581Z,38.80
2022-08-09T11:20:41.367Z,38.98
2022-08-09T11:23:11.886Z,38.86
2022-08-09T11:25:48.370Z,38.67
2022-08-09T11:28:34.693Z,38.72
2022-08-09T11:31:43.339Z,38.61
2022-08-09T11:34:40.226Z,38.56
2022-08-09T11:37:18.236Z,38.35
2022-08-09T11:40:08.152Z,38.44
2022-08-09T11:42:43.760Z,38.32
2022-08-09T11:45:43.550Z,37.95
2022-08-09T11:48:19.251Z,37.70
2022-08-09T11:52:06.789Z,37.57
2022-08-09T11:54:00.490Z,37.05
2022-08-09T11:56:41.380Z,36.62
2022-08-09T11:59:12.351Z,36.18
2022-08-09T12:02:01.004Z,36.28
2022-08-09T12:04:36.991Z,36.34
2022-08-09T12:07:08.410Z,36.05
2022-08-09T12:09:36.896Z,35.95
2022-08-09T12:12:20.426Z,35.71
2022-08-09T12:15:08.123Z,35.61
2022-08-09T12:17:42.339Z,35.26
2022-08-09T12:20:23.122Z,34.72
2022-08-09T12:22:56.838Z,34.28
2022-08-09T12:25:34.695Z,33.82
2022-08-09T12:29:11.902Z,33.65
2022-08-09T12:31:02.846Z,33.29
2022-08-09T12:33:59.279Z,32.87
2022-08-09T12:36:33.491Z,32.30
2022-08-09T12:39:01.795Z,31.80
2022-08-09T12:41:38.954Z,31.73
2022-08-09T12:44:10.084Z,31.47
2022-08-09T12:46:48.608Z,31.12
2022-08-09T12:49:18.859Z,31.09
2022-08-09T12:52:00.940Z,30.92
2022-08-09T12:55:03.223Z,30.58
2022-08-09T12:57:46.948Z,30.24
2022-08-09T13:00:25.225Z,29.90
2022-08-09T13:02:57.492Z,29.42
2022-08-09T13:06:13.178Z,29.22
2022-08-09T13:08:39.704Z,29.28
2022-08-09T13:11:23.250Z,28.63
2022-08-09T13:14:43.945Z,28.36
2022-08-09T13:16:50.544Z,27.82
2022-08-09T13:20:08.622Z,27.73
2022-08-09T13:22:45.600Z,26.93
2022-08-09T13:25:16.137Z,26.80
2022-08-09T13:27:54.658Z,26.16
2022-08-09T13:31:11.423Z,25.96
2022-08-09T13:33:23.290Z,25.59
2022-08-09T13:36:39.930Z,25.63
2022-08-09T13:38:54.977Z,25.59
2022-08-09T13:41:58.382Z,25.66
2022-08-09T13:44:16.414Z,25.28
2022-08-09T13:47:15.980Z,25.29
2022-08-09T13:49:37.992Z,24.95
2022-08-09T13:52:09.309Z,24.83
2022-08-09T13:54:42.895Z,24.02
2022-08-09T13:57:35.237Z,24.17
2022-08-09T14:00:08.775Z,23.77
2022-08-09T14:02:42.768Z,23.73
2022-08-09T14:06:00.033Z,23.17
2022-08-09T14:08:11.102Z,23.18
2022-08-09T14:10:49.087Z,22.77
2022-08-09T14:14:15.029Z,22.51
2022-08-09T14:16:15.363Z,22.20
2022-08-09T14:18:50.086Z,21.78
2022-08-09T14:21:21.034Z,21.63
2022-08-09T14:23:56.684Z,21.29
2022-08-09T14:26:30.463Z,21.05
2022-08-09T14:29:03.760Z,20.76
2022-08-09T14:31:52.017Z,20.43
2022-08-09T14:34:27.321Z,19.96
2022-08-09T14:37:06.473Z,19.90
2022-08-09T14:39:45.598Z,19.73
2022-08-09T14:42:30.387Z,19.66
2022-08-09T14:46:40.338Z,19.35
2022-08-09T14:47:57.955Z,19.17
2022-08-09T14:50:31.376Z,19.07
2022-08-09T14:53:11.392Z,18.77
2022-08-09T14:55:49.894Z,19.02
2022-08-09T14:58:18.680Z,18.98
2022-08-09T15:00:48.558Z,19.06
2022-08-09T15:03:20.427Z,19.11
2022-08-09T15:05:52.485Z,19.51
2022-08-09T15:08:25.839Z,19.62
2022-08-09T15:11:00.677Z,20.22
2022-08-09T15:13:48.194Z,20.41
2022-08-09T15:16:20.569Z,20.20
2022-08-09T15:18:49.061Z,20.22
2022-08-09T15:21:55.135Z,20.20
2022-08-09T15:24:12.900Z,20.69
2022-08-09T15:26:45.127Z,20.69
2022-08-09T15:30:55.875Z,20.78
2022-08-09T15:32:02.568Z,20.90
2022-08-09T15:34:32.633Z,21.07
2022-08-09T15:37:04.150Z,21.46
2022-08-09T15:39:43.678Z,21.55
2022-08-09T15:42:20.403Z,22.02
2022-08-09T15:44:50.616Z,22.29
2022-08-09T15:47:22.780Z,22.59
2022-08-09T15:50:04.680Z,23.00
2022-08-09T15:52:38.081Z,23.20
2022-08-09T15:55:08.799Z,23.37
2022-08-09T15:57:50.913Z,23.68
2022-08-09T16:00:25.193Z,23.85
2022-08-09T16:02:56.382Z,24.01
2022-08-09T16:05:53.488Z,24.45
2022-08-09T16:08:31.239Z,24.73
2022-08-09T16:11:01.735Z,24.81
2022-08-09T16:14:02.714Z,25.12
2022-08-09T16:16:19.309Z,25.49
2022-08-09T16:18:47.816Z,25.78
2022-08-09T16:21:17.009Z,26.04
2022-08-09T16:24:01.891Z,26.35
2022-08-09T16:26:33.790Z,26.63
2022-08-09T16:29:11.489Z,26.60
2022-08-09T16:32:19.750Z,26.81
2022-08-09T16:34:54.961Z,27.05
2022-08-09T16:37:56.164Z,27.30
2022-08-09T16:40:11.266Z,27.23
2022-08-09T16:42:45.402Z,27.53
2022-08-09T16:45:18.512Z,27.50
2022-08-09T16:48:37.914Z,27.70
2022-08-09T16:50:37.214Z,27.81
2022-08-09T16:53:08.963Z,27.85
2022-08-09T16:56:00.381Z,27.75
2022-08-09T16:58:26.957Z,27.50
2022-08-09T17:00:54.954Z,27.66
2022-08-09T17:03:24.095Z,27.52
2022-08-09T17:06:06.669Z,27.05
2022-08-09T17:09:03.041Z,26.35
2022-08-09T17:11:40.609Z,26.17
2022-08-09T17:14:25.661Z,25.87
2022-08-09T17:17:00.093Z,25.57
2022-08-09T17:19:47.235Z,25.38
2022-08-09T17:22:24.676Z,25.08
2022-08-09T17:25:02.618Z,24.94
2022-08-09T17:27:32.953Z,24.67
2022-08-09T17:30:04.806Z,24.52
2022-08-09T17:32:38.257Z,24.46
2022-08-09T17:35:12.223Z,24.60
2022-08-09T17:38:02.629Z,24.60
2022-08-09T17:40:34.939Z,24.95
2022-08-09T17:43:32.210Z,25.02
2022-08-09T17:46:04.248Z,25.22
2022-08-09T17:48:38.514Z,25.54
2022-08-09T17:51:18.514Z,25.72
2022-08-09T17:53:55.478Z,26.11
2022-08-09T17:56:35.769Z,26.35
2022-08-09T17:59:09.001Z,26.75
2022-08-09T18:02:07.581Z,26.55
2022-08-09T18:04:29.851Z,26.88
2022-08-09T18:06:58.207Z,27.27
2022-08-09T18:09:35.872Z,27.47
2022-08-09T18:12:19.383Z,27.84
2022-08-09T18:14:54.469Z,27.96
2022-08-09T18:18:02.886Z,28.10
2022-08-09T18:20:54.998Z,28.58
2022-08-09T18:23:05.463Z,28.68
2022-08-09T18:25:45.519Z,28.84
2022-08-09T18:30:40.977Z,29.00
2022-08-09T18:31:11.734Z,29.15
2022-08-09T18:33:40.369Z,29.28
2022-08-09T18:36:14.282Z,29.55
2022-08-09T18:38:57.518Z,30.04
2022-08-09T18:41:28.712Z,30.39
2022-08-09T18:43:57.315Z,30.45
2022-08-09T18:46:49.011Z,30.64
2022-08-09T18:49:12.236Z,31.22
2022-08-09T18:51:57.892Z,31.31
2022-08-09T18:54:28.562Z,31.56
2022-08-09T18:57:06.011Z,31.62
2022-08-09T18:59:48.550Z,32.14
2022-08-09T19:02:18.353Z,32.39
2022-08-09T19:04:47.808Z,32.70
2022-08-09T19:07:32.451Z,32.91
2022-08-09T19:10:14.074Z,33.25
2022-08-09T19:12:54.980Z,33.32
2022-08-09T19:15:24.443Z,33.51
2022-08-09T19:17:54.595Z,33.75
2022-08-09T19:20:24.240Z,34.16
2022-08-09T19:22:54.634Z,34.56
2022-08-09T19:25:42.481Z,34.70
2022-08-09T19:28:13.166Z,35.18
2022-08-09T19:30:44.197Z,35.25
2022-08-09T19:33:19.460Z,35.44
2022-08-09T19:35:57.964Z,35.42
2022-08-09T19:38:27.447Z,35.68
2022-08-09T19:40:57.683Z,35.67
2022-08-09T19:44:01.756Z,35.72
2022-08-09T19:46:35.106Z,35.75
2022-08-09T19:50:48.534Z,35.72
2022-08-09T19:51:56.025Z,36.01
2022-08-09T19:54:25.360Z,36.12
2022-08-09T19:56:54.446Z,36.05
2022-08-09T19:59:58.238Z,36.37
2022-08-09T20:04:06.880Z,36.43
2022-08-09T20:05:01.820Z,36.58
2022-08-09T20:07:49.669Z,36.65
2022-08-09T20:10:22.443Z,36.75
2022-08-09T20:13:04.958Z,36.92
2022-08-09T20:16:34.089Z,37.05
2022-08-09T20:18:23.109Z,37.07
2022-08-09T20:20:56.938Z,37.29
2022-08-09T20:23:38.613Z,37.38
2022-08-09T20:26:10.019Z,37.61
2022-08-09T20:28:50.139Z,37.67
2022-08-09T20:31:17.985Z,37.74
2022-08-09T20:33:58.245Z,37.98
2022-08-09T20:36:29.608Z,38.12
2022-08-09T20:39:28.895Z,38.31
2022-08-09T20:41:49.151Z,38.39
2022-08-09T20:44:16.947Z,38.45
2022-08-09T20:46:54.094Z,38.63
2022-08-09T20:49:21.542Z,38.77
2022-08-09T20:51:50.796Z,38.89
2022-08-09T20:54:18.672Z,39.00
2022-08-09T20:56:49.658Z,39.11
2022-08-09T21:00:20.138Z,39.39
2022-08-09T21:02:21.336Z,39.38
2022-08-09T21:05:51.968Z,39.52
2022-08-09T21:07:40.381Z,39.70
2022-08-09T21:10:11.974Z,39.76
2022-08-09T21:12:39.741Z,39.89
2022-08-09T21:15:12.566Z,39.93
2022-08-09T21:18:20.878Z,40.25
2022-08-09T21:20:31.263Z,40.36
2022-08-09T21:23:00.350Z,40.43
2022-08-09T21:25:55.385Z,40.49
2022-08-09T21:28:34.323Z,40.70
2022-08-09T21:31:13.627Z,41.09
2022-08-09T21:33:51.223Z,41.33
2022-08-09T21:36:23.284Z,41.40
2022-08-09T21:38:57.390Z,41.53
2022-08-09T21:42:04.738Z,41.85
2022-08-09T21:44:34.427Z,42.15
2022-08-09T21:47:05.052Z,42.39
2022-08-09T21:49:39.589Z,42.67
2022-08-09T21:52:14.675Z,42.83
2022-08-09T21:54:50.914Z,43.09
2022-08-09T21:57:39.191Z,43.23
2022-08-09T22:00:26.799Z,43.50
2022-08-09T22:03:04.792Z,43.56
2022-08-09T22:05:42.433Z,43.86
2022-08-09T22:08:16.080Z,43.96
2022-08-09T22:11:50.291Z,44.07
2022-08-09T22:13:34.858Z,44.30
2022-08-09T22:16:07.479Z,44.43
2022-08-09T22:18:37.646Z,44.52
2022-08-09T22:21:09.226Z,44.68
2022-08-09T22:23:59.172Z,44.72
2022-08-09T22:26:35.449Z,44.84
2022-08-09T22:29:09.407Z,44.94
2022-08-09T22:31:44.309Z,45.07
2022-08-09T22:34:18.188Z,45.21
2022-08-09T22:36:56.912Z,45.31
2022-08-09T22:39:57.373Z,45.38
2022-08-09T22:42:22.486Z,45.52
2022-08-09T22:45:00.022Z,45.59
2022-08-09T22:48:10.228Z,45.84
2022-08-09T22:50:31.691Z,45.79
2022-08-09T22:53:03.749Z,45.98
2022-08-09T22:56:30.063Z,46.02
2022-08-09T22:58:32.628Z,46.30
2022-08-09T23:01:05.472Z,46.36
2022-08-09T23:04:04.183Z,46.50
2022-08-09T23:06:35.204Z,46.69
2022-08-09T23:09:06.247Z,46.79
2022-08-09T23:11:34.017Z,46.93
2022-08-09T23:14:03.444Z,46.95
2022-08-09T23:16:31.705Z,47.05
2022-08-09T23:18:59.865Z,47.33
2022-08-09T23:21:33.255Z,47.33
2022-08-09T23:24:06.479Z,47.44
2022-08-09T23:26:39.016Z,47.46
2022-08-09T23:29:11.308Z,47.57
2022-08-09T23:31:42.131Z,47.64
2022-08-09T23:34:09.853Z,47.73
2022-08-09T23:36:37.405Z,47.76
2022-08-09T23:39:06.465Z,47.92
2022-08-09T23:41:35.567Z,48.13
2022-08-09T23:44:04.057Z,48.24
2022-08-09T23:46:33.012Z,48.29
2022-08-09T23:49:00.684Z,48.39
2022-08-09T23:51:29.070Z,48.44
2022-08-09T23:54:02.232Z,48.44
2022-08-09T23:56:53.328Z,48.38
2022-08-09T23:59:22.649Z,48.54
